Accueil
METAR-TAF:

METAR-TAF

Aéroports :

Aéroport de Comiso

Comiso, Italie

latitude: 36-59-30N, longitude: 14-36-25E, altitude: 190 m

Observation

Le bulletin a été fait il y a 35 minutes, à 22:20 UTC
Vent calme
Température 25°C
Humidité 69%
Pression 1017 hPa
Visibilité 10 km ou plus

METAR: LICB 032220Z AUTO 00000KT 9999 NCD 25/19 Q1017

Heure: 00:55 (22:55 UTC)

Prévision

Le bulletin a été fait il y a 5 heures et 55 minutes, à 17:00 UTC
Prévision valable du 03 à 18 UTC au 04 à 18 UTC
Vent 12 kt de ouest
Visibilité 10 km ou plus
pas de nuages en-dessous de 1500 mètres et pas de cumulonimbus.
Evoluant progressivement
du 03 à 18 UTC au 03 à 20 UTC
Vent 5 kt de direction variable
Evoluant progressivement
du 04 à 08 UTC au 04 à 10 UTC
Vent 10 kt de ouest/sud-ouest

TAF: LICB 031700Z 0318/0418 26012KT CAVOK BECMG 0318/0320 VRB05KT BECMG 0408/0410 25010KT

Observations et prévisions météorologiques de plus de 4000 aéroports (messages METAR et TAF).

Les stations disponibles sont représentées par des disques jaunes et rouges sur la carte.

Passer la souris dessus pour voir le nom de la station.

Cliquer dessus pour voir les observations et prévisions météorologiques.

Pour changer de carte: cliquez sur les boutons verts avec une croix noire pour zoomer, sur le bouton vert avec un tiret pour effectuer un zoom arrière, ou sur les flèches vertes pour les cartes adjacentes.


METAR-TAF: